Česky Dansk Deutsch English Español Suomi Français Magyar Italiano Nederlands norsk Polski Português svenska Türkçe

 

Het Weer

Kariba (Zimbabwe)

13:00, 13 augustus 2016 (GMT)

NWNNE
WE
SWSSE
Home            
Kariba Karoi Lusaka Internationalairport Gokwe Choma Binga Kabwe Lusaka City Airport Harare Kutsaga Hwange National Park Gweru Livingstone Petauke Victoria Falls Mutoko Bulawayo Airport Ndola Serenje Rusape Kasane Masvingo Kasempa Kaoma

Om een weerknop op uw website of weblog te plaatsen, copieer onderstaande code en plak die in uw pagina. In het eerste vakje staat HTML-code, in het tweede vakje UBB-code.


Add to Google

Details

Wind speed:2 bf, 5 kn, 2.6 m/s, 5.8 miles/h, 9.3 km/h
Wind direction:W, 260°
Visibility:Greater than 10000 m, 10 km, 32800 ft, 6.2 miles
Clouds:CAVOC
Temperature:28°C, 82°F
Gefühlte Temperatur:27°C, 81°F
Dew-point:11°C, 52°F
Atmospheric pressure:1015 hPa, 761.3 mmHg, 29.97 inHg, 1.002 atm
Relative humidity:34.7 %
METAR:FVKB 131300Z 26005KT CAVOK 28/11 Q1015

Snelkoppelingen

Actuele weersinformatie van de hele wereld. Voeg locaties toe met het plus (+) symbool. Deze snelkoppelingen kunnen worden toegevoegd aan Google.

Lid van de Technetium groep

website free tracking
StatCounter NetStat W3C Validator

21-10-2020 11:59:53
astro.technetium.be money.technetium.be phote.technetium.be tafeltennistafel.technetium.be www.ligfiets.net